sensor_id;sensor_type;location;lat;lon;timestamp;P1;durP1;ratioP1;P2;durP2;ratioP2
7255;SDS011;3669;49.200;9.242;2023-04-24T00:01:00;1.35;;;1.13;;
7255;SDS011;3669;49.200;9.242;2023-04-24T00:03:27;1.30;;;1.20;;
7255;SDS011;3669;49.200;9.242;2023-04-24T00:05:55;1.38;;;1.27;;
7255;SDS011;3669;49.200;9.242;2023-04-24T00:08:22;2.15;;;1.25;;
7255;SDS011;3669;49.200;9.242;2023-04-24T00:10:49;1.20;;;1.20;;
7255;SDS011;3669;49.200;9.242;2023-04-24T00:13:18;1.25;;;1.15;;
7255;SDS011;3669;49.200;9.242;2023-04-24T00:15:45;1.55;;;1.45;;
7255;SDS011;3669;49.200;9.242;2023-04-24T00:18:14;1.50;;;1.40;;
7255;SDS011;3669;49.200;9.242;2023-04-24T00:20:41;1.38;;;1.27;;
7255;SDS011;3669;49.200;9.242;2023-04-24T00:23:09;1.40;;;1.30;;
7255;SDS011;3669;49.200;9.242;2023-04-24T00:25:36;1.58;;;1.20;;
7255;SDS011;3669;49.200;9.242;2023-04-24T00:28:03;1.20;;;1.15;;
7255;SDS011;3669;49.200;9.242;2023-04-24T00:30:30;1.50;;;1.40;;
7255;SDS011;3669;49.200;9.242;2023-04-24T00:32:57;1.40;;;1.30;;
7255;SDS011;3669;49.200;9.242;2023-04-24T00:35:24;1.50;;;1.38;;
7255;SDS011;3669;49.200;9.242;2023-04-24T00:37:51;1.50;;;1.40;;
7255;SDS011;3669;49.200;9.242;2023-04-24T00:40:19;1.48;;;1.38;;
7255;SDS011;3669;49.200;9.242;2023-04-24T00:42:46;1.55;;;1.45;;
7255;SDS011;3669;49.200;9.242;2023-04-24T00:45:13;1.40;;;1.30;;
7255;SDS011;3669;49.200;9.242;2023-04-24T00:47:40;1.48;;;1.38;;
7255;SDS011;3669;49.200;9.242;2023-04-24T00:50:08;1.30;;;1.20;;
7255;SDS011;3669;49.200;9.242;2023-04-24T00:52:36;10.57;;;10.00;;
7255;SDS011;3669;49.200;9.242;2023-04-24T00:55:06;8.15;;;7.82;;
7255;SDS011;3669;49.200;9.242;2023-04-24T00:57:33;16.10;;;15.45;;
7255;SDS011;3669;49.200;9.242;2023-04-24T01:00:01;18.42;;;17.67;;
7255;SDS011;3669;49.200;9.242;2023-04-24T01:02:28;29.70;;;28.35;;
7255;SDS011;3669;49.200;9.242;2023-04-24T01:04:55;19.92;;;19.05;;
7255;SDS011;3669;49.200;9.242;2023-04-24T01:07:22;10.07;;;9.57;;
7255;SDS011;3669;49.200;9.242;2023-04-24T01:09:48;1.70;;;1.60;;
7255;SDS011;3669;49.200;9.242;2023-04-24T01:12:16;1.50;;;1.40;;
7255;SDS011;3669;49.200;9.242;2023-04-24T01:14:46;1.30;;;1.30;;
7255;SDS011;3669;49.200;9.242;2023-04-24T01:17:13;1.65;;;1.40;;
7255;SDS011;3669;49.200;9.242;2023-04-24T01:19:40;1.33;;;1.27;;
7255;SDS011;3669;49.200;9.242;2023-04-24T01:22:10;4.22;;;1.25;;
7255;SDS011;3669;49.200;9.242;2023-04-24T01:24:38;2.15;;;1.67;;
7255;SDS011;3669;49.200;9.242;2023-04-24T01:27:05;1.60;;;1.50;;
7255;SDS011;3669;49.200;9.242;2023-04-24T01:29:32;2.45;;;1.50;;
7255;SDS011;3669;49.200;9.242;2023-04-24T01:31:59;1.63;;;1.52;;
7255;SDS011;3669;49.200;9.242;2023-04-24T01:34:26;1.40;;;1.30;;
7255;SDS011;3669;49.200;9.242;2023-04-24T01:36:54;4.03;;;1.85;;
7255;SDS011;3669;49.200;9.242;2023-04-24T01:39:22;1.52;;;1.42;;
7255;SDS011;3669;49.200;9.242;2023-04-24T01:41:51;1.50;;;1.40;;
7255;SDS011;3669;49.200;9.242;2023-04-24T01:44:19;1.88;;;1.48;;
7255;SDS011;3669;49.200;9.242;2023-04-24T01:46:46;1.20;;;1.20;;
7255;SDS011;3669;49.200;9.242;2023-04-24T01:49:14;1.60;;;1.40;;
7255;SDS011;3669;49.200;9.242;2023-04-24T01:51:41;1.92;;;1.30;;
7255;SDS011;3669;49.200;9.242;2023-04-24T01:54:08;2.00;;;1.50;;
7255;SDS011;3669;49.200;9.242;2023-04-24T01:56:35;1.50;;;1.40;;
7255;SDS011;3669;49.200;9.242;2023-04-24T01:59:03;1.60;;;1.50;;
7255;SDS011;3669;49.200;9.242;2023-04-24T02:01:34;1.60;;;1.50;;
7255;SDS011;3669;49.200;9.242;2023-04-24T02:04:02;1.70;;;1.60;;
7255;SDS011;3669;49.200;9.242;2023-04-24T02:06:29;1.40;;;1.30;;
7255;SDS011;3669;49.200;9.242;2023-04-24T02:08:57;1.55;;;1.45;;
7255;SDS011;3669;49.200;9.242;2023-04-24T02:11:24;1.50;;;1.40;;
7255;SDS011;3669;49.200;9.242;2023-04-24T02:13:52;1.60;;;1.50;;
7255;SDS011;3669;49.200;9.242;2023-04-24T02:16:19;2.83;;;1.63;;
7255;SDS011;3669;49.200;9.242;2023-04-24T02:18:46;1.48;;;1.38;;
7255;SDS011;3669;49.200;9.242;2023-04-24T02:21:13;1.90;;;1.80;;
7255;SDS011;3669;49.200;9.242;2023-04-24T02:23:40;1.88;;;1.50;;
7255;SDS011;3669;49.200;9.242;2023-04-24T02:26:07;1.60;;;1.50;;
7255;SDS011;3669;49.200;9.242;2023-04-24T02:28:35;1.58;;;1.48;;
7255;SDS011;3669;49.200;9.242;2023-04-24T02:31:02;1.60;;;1.50;;
7255;SDS011;3669;49.200;9.242;2023-04-24T02:33:29;1.98;;;1.55;;
7255;SDS011;3669;49.200;9.242;2023-04-24T02:35:56;1.67;;;1.33;;
7255;SDS011;3669;49.200;9.242;2023-04-24T02:38:23;1.77;;;1.60;;
7255;SDS011;3669;49.200;9.242;2023-04-24T02:40:50;1.63;;;1.52;;
7255;SDS011;3669;49.200;9.242;2023-04-24T02:43:17;2.70;;;1.50;;
7255;SDS011;3669;49.200;9.242;2023-04-24T02:45:45;1.52;;;1.42;;
7255;SDS011;3669;49.200;9.242;2023-04-24T02:48:12;1.80;;;1.40;;
7255;SDS011;3669;49.200;9.242;2023-04-24T02:50:39;1.75;;;1.63;;
7255;SDS011;3669;49.200;9.242;2023-04-24T02:53:06;1.63;;;1.50;;
7255;SDS011;3669;49.200;9.242;2023-04-24T02:55:33;1.30;;;1.20;;
7255;SDS011;3669;49.200;9.242;2023-04-24T02:58:00;1.77;;;1.58;;
7255;SDS011;3669;49.200;9.242;2023-04-24T03:00:27;1.27;;;1.27;;
7255;SDS011;3669;49.200;9.242;2023-04-24T03:02:54;2.78;;;2.65;;
7255;SDS011;3669;49.200;9.242;2023-04-24T03:05:21;7.38;;;7.05;;
7255;SDS011;3669;49.200;9.242;2023-04-24T03:07:48;20.85;;;20.00;;
7255;SDS011;3669;49.200;9.242;2023-04-24T03:10:15;19.42;;;18.48;;
7255;SDS011;3669;49.200;9.242;2023-04-24T03:12:42;18.98;;;18.17;;
7255;SDS011;3669;49.200;9.242;2023-04-24T03:15:09;16.83;;;16.13;;
7255;SDS011;3669;49.200;9.242;2023-04-24T03:17:36;15.98;;;15.18;;
7255;SDS011;3669;49.200;9.242;2023-04-24T03:20:03;5.97;;;5.70;;
7255;SDS011;3669;49.200;9.242;2023-04-24T03:22:30;2.83;;;2.55;;
7255;SDS011;3669;49.200;9.242;2023-04-24T03:24:58;1.73;;;1.63;;
7255;SDS011;3669;49.200;9.242;2023-04-24T03:27:25;1.52;;;1.40;;
7255;SDS011;3669;49.200;9.242;2023-04-24T03:29:52;2.15;;;1.67;;
7255;SDS011;3669;49.200;9.242;2023-04-24T03:32:24;1.50;;;1.40;;
7255;SDS011;3669;49.200;9.242;2023-04-24T03:34:52;1.50;;;1.40;;
7255;SDS011;3669;49.200;9.242;2023-04-24T03:37:19;1.50;;;1.40;;
7255;SDS011;3669;49.200;9.242;2023-04-24T03:39:46;2.33;;;1.55;;
7255;SDS011;3669;49.200;9.242;2023-04-24T03:42:13;1.60;;;1.50;;
7255;SDS011;3669;49.200;9.242;2023-04-24T03:44:41;1.67;;;1.58;;
7255;SDS011;3669;49.200;9.242;2023-04-24T03:47:08;1.73;;;1.63;;
7255;SDS011;3669;49.200;9.242;2023-04-24T03:49:35;1.77;;;1.60;;
7255;SDS011;3669;49.200;9.242;2023-04-24T03:52:02;1.40;;;1.30;;
7255;SDS011;3669;49.200;9.242;2023-04-24T03:54:29;1.60;;;1.50;;
7255;SDS011;3669;49.200;9.242;2023-04-24T03:56:57;1.70;;;1.60;;
7255;SDS011;3669;49.200;9.242;2023-04-24T03:59:24;1.52;;;1.42;;
7255;SDS011;3669;49.200;9.242;2023-04-24T04:01:51;1.48;;;1.40;;
7255;SDS011;3669;49.200;9.242;2023-04-24T04:04:18;1.88;;;1.50;;
7255;SDS011;3669;49.200;9.242;2023-04-24T04:06:45;1.85;;;1.70;;
7255;SDS011;3669;49.200;9.242;2023-04-24T04:09:13;1.80;;;1.60;;
7255;SDS011;3669;49.200;9.242;2023-04-24T04:11:40;1.67;;;1.40;;
7255;SDS011;3669;49.200;9.242;2023-04-24T04:14:07;2.15;;;1.50;;
7255;SDS011;3669;49.200;9.242;2023-04-24T04:16:34;1.70;;;1.60;;
7255;SDS011;3669;49.200;9.242;2023-04-24T04:19:02;1.65;;;1.50;;
7255;SDS011;3669;49.200;9.242;2023-04-24T04:21:29;1.63;;;1.52;;
7255;SDS011;3669;49.200;9.242;2023-04-24T04:23:57;2.38;;;1.70;;
7255;SDS011;3669;49.200;9.242;2023-04-24T04:26:24;1.90;;;1.63;;
7255;SDS011;3669;49.200;9.242;2023-04-24T04:28:54;4.55;;;1.70;;
7255;SDS011;3669;49.200;9.242;2023-04-24T04:31:22;1.80;;;1.70;;
7255;SDS011;3669;49.200;9.242;2023-04-24T04:33:49;1.40;;;1.30;;
7255;SDS011;3669;49.200;9.242;2023-04-24T04:36:16;1.67;;;1.58;;
7255;SDS011;3669;49.200;9.242;2023-04-24T04:38:43;2.08;;;1.70;;
7255;SDS011;3669;49.200;9.242;2023-04-24T04:41:10;2.38;;;1.50;;
7255;SDS011;3669;49.200;9.242;2023-04-24T04:43:37;1.88;;;1.67;;
7255;SDS011;3669;49.200;9.242;2023-04-24T04:46:06;2.20;;;1.60;;
7255;SDS011;3669;49.200;9.242;2023-04-24T04:48:34;1.50;;;1.40;;
7255;SDS011;3669;49.200;9.242;2023-04-24T04:51:01;1.70;;;1.60;;
7255;SDS011;3669;49.200;9.242;2023-04-24T04:53:28;2.42;;;1.58;;
7255;SDS011;3669;49.200;9.242;2023-04-24T04:55:55;1.90;;;1.65;;
7255;SDS011;3669;49.200;9.242;2023-04-24T04:58:22;1.70;;;1.60;;
7255;SDS011;3669;49.200;9.242;2023-04-24T05:00:49;1.75;;;1.65;;
7255;SDS011;3669;49.200;9.242;2023-04-24T05:03:16;1.60;;;1.50;;
7255;SDS011;3669;49.200;9.242;2023-04-24T05:05:43;1.52;;;1.42;;
7255;SDS011;3669;49.200;9.242;2023-04-24T05:08:11;1.80;;;1.70;;
7255;SDS011;3669;49.200;9.242;2023-04-24T05:10:38;1.40;;;1.30;;
7255;SDS011;3669;49.200;9.242;2023-04-24T05:13:05;2.08;;;1.50;;
7255;SDS011;3669;49.200;9.242;2023-04-24T05:15:32;1.98;;;1.40;;
7255;SDS011;3669;49.200;9.242;2023-04-24T05:17:59;1.45;;;1.35;;
7255;SDS011;3669;49.200;9.242;2023-04-24T05:20:26;2.38;;;1.70;;
7255;SDS011;3669;49.200;9.242;2023-04-24T05:22:52;1.70;;;1.60;;
7255;SDS011;3669;49.200;9.242;2023-04-24T05:25:19;1.70;;;1.60;;
7255;SDS011;3669;49.200;9.242;2023-04-24T05:27:46;11.75;;;11.18;;
7255;SDS011;3669;49.200;9.242;2023-04-24T05:30:13;19.52;;;18.63;;
7255;SDS011;3669;49.200;9.242;2023-04-24T05:32:40;27.98;;;26.77;;
7255;SDS011;3669;49.200;9.242;2023-04-24T05:35:07;20.52;;;19.58;;
7255;SDS011;3669;49.200;9.242;2023-04-24T05:37:35;23.58;;;22.30;;
7255;SDS011;3669;49.200;9.242;2023-04-24T05:40:02;14.32;;;13.65;;
7255;SDS011;3669;49.200;9.242;2023-04-24T05:42:31;19.77;;;18.73;;
7255;SDS011;3669;49.200;9.242;2023-04-24T05:44:57;5.53;;;5.28;;
7255;SDS011;3669;49.200;9.242;2023-04-24T05:47:24;2.50;;;2.25;;
7255;SDS011;3669;49.200;9.242;2023-04-24T05:49:52;1.80;;;1.70;;
7255;SDS011;3669;49.200;9.242;2023-04-24T05:52:19;1.80;;;1.70;;
7255;SDS011;3669;49.200;9.242;2023-04-24T05:54:46;1.98;;;1.88;;
7255;SDS011;3669;49.200;9.242;2023-04-24T05:57:13;2.08;;;1.95;;
7255;SDS011;3669;49.200;9.242;2023-04-24T05:59:40;2.42;;;2.22;;
7255;SDS011;3669;49.200;9.242;2023-04-24T06:02:07;2.05;;;1.92;;
7255;SDS011;3669;49.200;9.242;2023-04-24T06:04:35;2.40;;;2.20;;
7255;SDS011;3669;49.200;9.242;2023-04-24T06:07:02;2.20;;;2.00;;
7255;SDS011;3669;49.200;9.242;2023-04-24T06:09:29;2.38;;;2.17;;
7255;SDS011;3669;49.200;9.242;2023-04-24T06:11:56;2.30;;;2.10;;
7255;SDS011;3669;49.200;9.242;2023-04-24T06:14:24;2.55;;;2.35;;
7255;SDS011;3669;49.200;9.242;2023-04-24T06:16:51;2.60;;;2.40;;
7255;SDS011;3669;49.200;9.242;2023-04-24T06:19:18;2.40;;;2.22;;
7255;SDS011;3669;49.200;9.242;2023-04-24T06:21:45;2.40;;;2.20;;
7255;SDS011;3669;49.200;9.242;2023-04-24T06:24:14;2.40;;;2.20;;
7255;SDS011;3669;49.200;9.242;2023-04-24T06:26:42;2.47;;;2.28;;
7255;SDS011;3669;49.200;9.242;2023-04-24T06:29:09;2.25;;;2.15;;
7255;SDS011;3669;49.200;9.242;2023-04-24T06:31:36;2.72;;;1.92;;
7255;SDS011;3669;49.200;9.242;2023-04-24T06:34:04;2.05;;;1.92;;
7255;SDS011;3669;49.200;9.242;2023-04-24T06:36:31;2.35;;;2.17;;
7255;SDS011;3669;49.200;9.242;2023-04-24T06:39:00;2.67;;;2.30;;
7255;SDS011;3669;49.200;9.242;2023-04-24T06:41:28;2.20;;;2.00;;
7255;SDS011;3669;49.200;9.242;2023-04-24T06:43:55;2.40;;;2.20;;
7255;SDS011;3669;49.200;9.242;2023-04-24T06:46:22;2.33;;;2.22;;
7255;SDS011;3669;49.200;9.242;2023-04-24T06:48:52;2.38;;;2.17;;
7255;SDS011;3669;49.200;9.242;2023-04-24T06:51:23;2.38;;;2.22;;
7255;SDS011;3669;49.200;9.242;2023-04-24T06:53:51;3.40;;;2.30;;
7255;SDS011;3669;49.200;9.242;2023-04-24T06:56:18;2.60;;;2.40;;
7255;SDS011;3669;49.200;9.242;2023-04-24T06:58:46;2.40;;;2.20;;
7255;SDS011;3669;49.200;9.242;2023-04-24T07:01:13;2.42;;;2.22;;
7255;SDS011;3669;49.200;9.242;2023-04-24T07:03:40;2.80;;;2.60;;
7255;SDS011;3669;49.200;9.242;2023-04-24T07:06:07;3.10;;;2.88;;
7255;SDS011;3669;49.200;9.242;2023-04-24T07:08:34;4.75;;;3.25;;
7255;SDS011;3669;49.200;9.242;2023-04-24T07:11:02;3.00;;;2.70;;
7255;SDS011;3669;49.200;9.242;2023-04-24T07:13:29;3.72;;;2.95;;
7255;SDS011;3669;49.200;9.242;2023-04-24T07:15:56;2.80;;;2.50;;
7255;SDS011;3669;49.200;9.242;2023-04-24T07:18:24;2.58;;;2.38;;
7255;SDS011;3669;49.200;9.242;2023-04-24T07:20:51;2.85;;;2.53;;
7255;SDS011;3669;49.200;9.242;2023-04-24T07:23:19;2.50;;;2.30;;
7255;SDS011;3669;49.200;9.242;2023-04-24T07:25:47;2.70;;;2.50;;
7255;SDS011;3669;49.200;9.242;2023-04-24T07:28:14;2.60;;;2.40;;
7255;SDS011;3669;49.200;9.242;2023-04-24T07:30:40;2.72;;;2.10;;
7255;SDS011;3669;49.200;9.242;2023-04-24T07:33:07;2.85;;;2.50;;
7255;SDS011;3669;49.200;9.242;2023-04-24T07:35:37;3.95;;;2.47;;
7255;SDS011;3669;49.200;9.242;2023-04-24T07:38:04;2.50;;;2.30;;
7255;SDS011;3669;49.200;9.242;2023-04-24T07:40:31;2.45;;;2.25;;
7255;SDS011;3669;49.200;9.242;2023-04-24T07:42:58;3.13;;;2.25;;
7255;SDS011;3669;49.200;9.242;2023-04-24T07:45:25;2.60;;;2.40;;
7255;SDS011;3669;49.200;9.242;2023-04-24T07:47:53;4.80;;;4.43;;
7255;SDS011;3669;49.200;9.242;2023-04-24T07:50:20;18.92;;;18.00;;
7255;SDS011;3669;49.200;9.242;2023-04-24T07:52:47;23.05;;;21.90;;
7255;SDS011;3669;49.200;9.242;2023-04-24T07:55:14;26.75;;;25.38;;
7255;SDS011;3669;49.200;9.242;2023-04-24T07:57:41;18.80;;;17.98;;
7255;SDS011;3669;49.200;9.242;2023-04-24T08:00:08;25.08;;;23.95;;
7255;SDS011;3669;49.200;9.242;2023-04-24T08:02:36;12.27;;;11.57;;
7255;SDS011;3669;49.200;9.242;2023-04-24T08:05:03;5.60;;;5.28;;
7255;SDS011;3669;49.200;9.242;2023-04-24T08:07:29;3.05;;;2.00;;
7255;SDS011;3669;49.200;9.242;2023-04-24T08:09:57;3.45;;;2.05;;
7255;SDS011;3669;49.200;9.242;2023-04-24T08:12:25;4.57;;;2.15;;
7255;SDS011;3669;49.200;9.242;2023-04-24T08:14:53;2.45;;;2.05;;
7255;SDS011;3669;49.200;9.242;2023-04-24T08:17:20;2.60;;;2.25;;
7255;SDS011;3669;49.200;9.242;2023-04-24T08:19:47;2.20;;;2.00;;
7255;SDS011;3669;49.200;9.242;2023-04-24T08:22:15;2.40;;;2.20;;
7255;SDS011;3669;49.200;9.242;2023-04-24T08:24:42;2.55;;;2.10;;
7255;SDS011;3669;49.200;9.242;2023-04-24T08:27:09;2.33;;;2.13;;
7255;SDS011;3669;49.200;9.242;2023-04-24T08:29:36;2.50;;;2.30;;
7255;SDS011;3669;49.200;9.242;2023-04-24T08:32:04;2.58;;;2.05;;
7255;SDS011;3669;49.200;9.242;2023-04-24T08:34:31;2.58;;;2.22;;
7255;SDS011;3669;49.200;9.242;2023-04-24T08:36:58;2.47;;;2.28;;
7255;SDS011;3669;49.200;9.242;2023-04-24T08:39:25;3.17;;;2.30;;
7255;SDS011;3669;49.200;9.242;2023-04-24T08:41:52;2.17;;;1.98;;
7255;SDS011;3669;49.200;9.242;2023-04-24T08:44:19;3.70;;;2.33;;
7255;SDS011;3669;49.200;9.242;2023-04-24T08:46:47;2.08;;;1.92;;
7255;SDS011;3669;49.200;9.242;2023-04-24T08:49:14;2.00;;;1.80;;
7255;SDS011;3669;49.200;9.242;2023-04-24T08:51:42;2.10;;;1.90;;
7255;SDS011;3669;49.200;9.242;2023-04-24T08:54:09;2.08;;;1.85;;
7255;SDS011;3669;49.200;9.242;2023-04-24T08:56:37;1.88;;;1.77;;
7255;SDS011;3669;49.200;9.242;2023-04-24T08:59:05;1.85;;;1.70;;
7255;SDS011;3669;49.200;9.242;2023-04-24T09:01:33;1.85;;;1.70;;
7255;SDS011;3669;49.200;9.242;2023-04-24T09:04:05;2.08;;;1.92;;
7255;SDS011;3669;49.200;9.242;2023-04-24T09:06:35;2.00;;;1.83;;
7255;SDS011;3669;49.200;9.242;2023-04-24T09:09:02;1.77;;;1.67;;
7255;SDS011;3669;49.200;9.242;2023-04-24T09:11:30;1.83;;;1.70;;
7255;SDS011;3669;49.200;9.242;2023-04-24T09:13:58;2.25;;;1.60;;
7255;SDS011;3669;49.200;9.242;2023-04-24T09:16:25;1.75;;;1.65;;
7255;SDS011;3669;49.200;9.242;2023-04-24T09:18:53;1.70;;;1.60;;
7255;SDS011;3669;49.200;9.242;2023-04-24T09:21:21;1.90;;;1.80;;
7255;SDS011;3669;49.200;9.242;2023-04-24T09:23:59;2.17;;;1.85;;
7255;SDS011;3669;49.200;9.242;2023-04-24T09:26:28;2.17;;;1.83;;
7255;SDS011;3669;49.200;9.242;2023-04-24T09:28:57;1.90;;;1.80;;
7255;SDS011;3669;49.200;9.242;2023-04-24T09:31:26;1.77;;;1.52;;
7255;SDS011;3669;49.200;9.242;2023-04-24T09:36:31;1.77;;;1.42;;
7255;SDS011;3669;49.200;9.242;2023-04-24T09:39:05;1.70;;;1.60;;
7255;SDS011;3669;49.200;9.242;2023-04-24T09:41:52;1.83;;;1.40;;
7255;SDS011;3669;49.200;9.242;2023-04-24T09:44:21;1.67;;;1.58;;
7255;SDS011;3669;49.200;9.242;2023-04-24T09:46:53;1.92;;;1.50;;
7255;SDS011;3669;49.200;9.242;2023-04-24T09:49:29;1.95;;;1.40;;
7255;SDS011;3669;49.200;9.242;2023-04-24T09:52:06;2.00;;;1.58;;
7255;SDS011;3669;49.200;9.242;2023-04-24T09:54:33;2.05;;;1.85;;
7255;SDS011;3669;49.200;9.242;2023-04-24T09:57:02;1.60;;;1.50;;
7255;SDS011;3669;49.200;9.242;2023-04-24T09:59:30;2.05;;;1.50;;
7255;SDS011;3669;49.200;9.242;2023-04-24T10:01:57;1.70;;;1.60;;
7255;SDS011;3669;49.200;9.242;2023-04-24T10:04:25;1.80;;;1.70;;
7255;SDS011;3669;49.200;9.242;2023-04-24T10:06:53;1.63;;;1.52;;
7255;SDS011;3669;49.200;9.242;2023-04-24T10:09:22;2.28;;;1.70;;
7255;SDS011;3669;49.200;9.242;2023-04-24T10:11:50;1.60;;;1.50;;
7255;SDS011;3669;49.200;9.242;2023-04-24T10:14:18;1.75;;;1.65;;
7255;SDS011;3669;49.200;9.242;2023-04-24T10:16:46;1.70;;;1.60;;
7255;SDS011;3669;49.200;9.242;2023-04-24T10:19:14;2.10;;;1.77;;
7255;SDS011;3669;49.200;9.242;2023-04-24T10:21:43;1.80;;;1.70;;
7255;SDS011;3669;49.200;9.242;2023-04-24T10:24:13;2.70;;;2.00;;
7255;SDS011;3669;49.200;9.242;2023-04-24T10:26:40;2.25;;;2.15;;
7255;SDS011;3669;49.200;9.242;2023-04-24T10:29:07;4.38;;;4.10;;
7255;SDS011;3669;49.200;9.242;2023-04-24T10:31:38;14.32;;;13.70;;
7255;SDS011;3669;49.200;9.242;2023-04-24T10:34:05;23.08;;;21.98;;
7255;SDS011;3669;49.200;9.242;2023-04-24T10:36:33;27.25;;;25.90;;
7255;SDS011;3669;49.200;9.242;2023-04-24T10:39:01;7.32;;;6.93;;
7255;SDS011;3669;49.200;9.242;2023-04-24T10:41:28;3.00;;;2.38;;
7255;SDS011;3669;49.200;9.242;2023-04-24T10:46:33;2.33;;;2.10;;
7255;SDS011;3669;49.200;9.242;2023-04-24T10:49:03;2.47;;;2.22;;
7255;SDS011;3669;49.200;9.242;2023-04-24T10:54:34;2.65;;;2.45;;
7255;SDS011;3669;49.200;9.242;2023-04-24T10:57:34;2.20;;;1.95;;
7255;SDS011;3669;49.200;9.242;2023-04-24T11:00:15;2.30;;;2.10;;
7255;SDS011;3669;49.200;9.242;2023-04-24T11:02:42;12.10;;;11.40;;
7255;SDS011;3669;49.200;9.242;2023-04-24T11:05:18;2.45;;;2.20;;
7255;SDS011;3669;49.200;9.242;2023-04-24T11:10:30;2.72;;;2.50;;
7255;SDS011;3669;49.200;9.242;2023-04-24T11:12:58;2.78;;;2.17;;
7255;SDS011;3669;49.200;9.242;2023-04-24T11:15:25;2.70;;;2.50;;
7255;SDS011;3669;49.200;9.242;2023-04-24T11:17:52;2.30;;;2.20;;
7255;SDS011;3669;49.200;9.242;2023-04-24T11:20:22;2.45;;;2.30;;
7255;SDS011;3669;49.200;9.242;2023-04-24T11:22:55;2.40;;;2.20;;
7255;SDS011;3669;49.200;9.242;2023-04-24T11:25:32;2.90;;;2.45;;
7255;SDS011;3669;49.200;9.242;2023-04-24T11:28:03;2.50;;;2.30;;
7255;SDS011;3669;49.200;9.242;2023-04-24T11:30:31;2.22;;;2.13;;
7255;SDS011;3669;49.200;9.242;2023-04-24T11:33:02;2.50;;;2.30;;
7255;SDS011;3669;49.200;9.242;2023-04-24T11:35:30;2.63;;;2.30;;
7255;SDS011;3669;49.200;9.242;2023-04-24T11:38:04;1.90;;;1.80;;
7255;SDS011;3669;49.200;9.242;2023-04-24T11:40:31;2.50;;;2.30;;
7255;SDS011;3669;49.200;9.242;2023-04-24T11:42:59;2.15;;;2.05;;
7255;SDS011;3669;49.200;9.242;2023-04-24T11:45:29;2.95;;;2.20;;
7255;SDS011;3669;49.200;9.242;2023-04-24T11:47:56;2.67;;;2.20;;
7255;SDS011;3669;49.200;9.242;2023-04-24T11:50:25;2.03;;;1.92;;
7255;SDS011;3669;49.200;9.242;2023-04-24T11:52:54;2.28;;;2.08;;
7255;SDS011;3669;49.200;9.242;2023-04-24T11:57:50;2.08;;;1.98;;
7255;SDS011;3669;49.200;9.242;2023-04-24T12:00:21;2.08;;;1.98;;
7255;SDS011;3669;49.200;9.242;2023-04-24T12:02:49;12.23;;;11.50;;
7255;SDS011;3669;49.200;9.242;2023-04-24T12:05:23;2.33;;;2.22;;
7255;SDS011;3669;49.200;9.242;2023-04-24T12:07:51;2.40;;;2.20;;
7255;SDS011;3669;49.200;9.242;2023-04-24T12:10:22;2.50;;;2.30;;
7255;SDS011;3669;49.200;9.242;2023-04-24T12:12:50;2.53;;;2.30;;
7255;SDS011;3669;49.200;9.242;2023-04-24T12:15:17;2.20;;;2.00;;
7255;SDS011;3669;49.200;9.242;2023-04-24T12:17:45;22.77;;;21.70;;
7255;SDS011;3669;49.200;9.242;2023-04-24T12:20:12;33.40;;;31.85;;
7255;SDS011;3669;49.200;9.242;2023-04-24T12:22:49;12.65;;;11.90;;
7255;SDS011;3669;49.200;9.242;2023-04-24T12:25:18;4.40;;;4.15;;
7255;SDS011;3669;49.200;9.242;2023-04-24T12:27:45;2.53;;;2.33;;
7255;SDS011;3669;49.200;9.242;2023-04-24T12:30:14;2.40;;;2.20;;
7255;SDS011;3669;49.200;9.242;2023-04-24T12:32:42;2.70;;;2.50;;
7255;SDS011;3669;49.200;9.242;2023-04-24T12:35:09;3.17;;;2.22;;
7255;SDS011;3669;49.200;9.242;2023-04-24T12:37:36;2.50;;;2.30;;
7255;SDS011;3669;49.200;9.242;2023-04-24T12:40:06;2.40;;;2.00;;
7255;SDS011;3669;49.200;9.242;2023-04-24T12:42:33;2.30;;;2.10;;
7255;SDS011;3669;49.200;9.242;2023-04-24T12:45:05;2.60;;;2.25;;
7255;SDS011;3669;49.200;9.242;2023-04-24T12:47:32;2.55;;;2.30;;
7255;SDS011;3669;49.200;9.242;2023-04-24T12:50:00;3.17;;;2.53;;
7255;SDS011;3669;49.200;9.242;2023-04-24T12:52:28;2.50;;;2.30;;
7255;SDS011;3669;49.200;9.242;2023-04-24T12:54:57;2.47;;;2.28;;
7255;SDS011;3669;49.200;9.242;2023-04-24T12:57:25;2.92;;;2.40;;
7255;SDS011;3669;49.200;9.242;2023-04-24T12:59:56;2.67;;;2.40;;
7255;SDS011;3669;49.200;9.242;2023-04-24T13:02:23;2.17;;;2.08;;
7255;SDS011;3669;49.200;9.242;2023-04-24T13:04:51;2.53;;;2.40;;
7255;SDS011;3669;49.200;9.242;2023-04-24T13:07:18;3.30;;;2.33;;
7255;SDS011;3669;49.200;9.242;2023-04-24T13:09:45;2.88;;;2.50;;
7255;SDS011;3669;49.200;9.242;2023-04-24T13:12:12;2.53;;;2.20;;
7255;SDS011;3669;49.200;9.242;2023-04-24T13:14:40;2.30;;;2.13;;
7255;SDS011;3669;49.200;9.242;2023-04-24T13:17:07;2.90;;;2.47;;
7255;SDS011;3669;49.200;9.242;2023-04-24T13:19:38;2.50;;;2.30;;
7255;SDS011;3669;49.200;9.242;2023-04-24T13:22:06;2.05;;;1.95;;
7255;SDS011;3669;49.200;9.242;2023-04-24T13:24:33;2.30;;;2.20;;
7255;SDS011;3669;49.200;9.242;2023-04-24T13:27:00;2.70;;;2.50;;
7255;SDS011;3669;49.200;9.242;2023-04-24T13:29:28;2.42;;;2.22;;
7255;SDS011;3669;49.200;9.242;2023-04-24T13:31:55;2.63;;;2.38;;
7255;SDS011;3669;49.200;9.242;2023-04-24T13:34:25;2.60;;;2.40;;
7255;SDS011;3669;49.200;9.242;2023-04-24T13:36:53;2.58;;;2.38;;
7255;SDS011;3669;49.200;9.242;2023-04-24T13:39:21;2.80;;;2.60;;
7255;SDS011;3669;49.200;9.242;2023-04-24T13:41:48;2.17;;;2.08;;
7255;SDS011;3669;49.200;9.242;2023-04-24T13:44:16;2.70;;;2.50;;
7255;SDS011;3669;49.200;9.242;2023-04-24T13:46:44;2.70;;;2.50;;
7255;SDS011;3669;49.200;9.242;2023-04-24T13:49:12;2.90;;;2.63;;
7255;SDS011;3669;49.200;9.242;2023-04-24T13:51:39;2.60;;;2.40;;
7255;SDS011;3669;49.200;9.242;2023-04-24T13:54:06;2.42;;;2.20;;
7255;SDS011;3669;49.200;9.242;2023-04-24T13:56:33;2.90;;;2.53;;
7255;SDS011;3669;49.200;9.242;2023-04-24T13:59:01;2.72;;;2.53;;
7255;SDS011;3669;49.200;9.242;2023-04-24T14:01:28;2.70;;;2.50;;
7255;SDS011;3669;49.200;9.242;2023-04-24T14:03:55;4.18;;;3.03;;
7255;SDS011;3669;49.200;9.242;2023-04-24T14:06:22;2.80;;;2.60;;
7255;SDS011;3669;49.200;9.242;2023-04-24T14:08:49;2.80;;;2.60;;
7255;SDS011;3669;49.200;9.242;2023-04-24T14:11:17;3.08;;;2.50;;
7255;SDS011;3669;49.200;9.242;2023-04-24T14:13:44;3.50;;;2.70;;
7255;SDS011;3669;49.200;9.242;2023-04-24T14:16:12;2.58;;;2.38;;
7255;SDS011;3669;49.200;9.242;2023-04-24T14:18:40;3.15;;;2.72;;
7255;SDS011;3669;49.200;9.242;2023-04-24T14:21:07;2.25;;;2.13;;
7255;SDS011;3669;49.200;9.242;2023-04-24T14:23:34;2.60;;;2.40;;
7255;SDS011;3669;49.200;9.242;2023-04-24T14:26:01;2.50;;;2.30;;
7255;SDS011;3669;49.200;9.242;2023-04-24T14:28:28;2.85;;;2.65;;
7255;SDS011;3669;49.200;9.242;2023-04-24T14:30:55;10.20;;;9.68;;
7255;SDS011;3669;49.200;9.242;2023-04-24T14:33:22;9.02;;;8.63;;
7255;SDS011;3669;49.200;9.242;2023-04-24T14:35:49;24.65;;;23.23;;
7255;SDS011;3669;49.200;9.242;2023-04-24T14:38:16;31.27;;;29.80;;
7255;SDS011;3669;49.200;9.242;2023-04-24T14:40:43;12.57;;;11.98;;
7255;SDS011;3669;49.200;9.242;2023-04-24T14:43:10;16.85;;;16.02;;
7255;SDS011;3669;49.200;9.242;2023-04-24T14:45:38;8.25;;;7.80;;
7255;SDS011;3669;49.200;9.242;2023-04-24T14:48:06;10.15;;;9.60;;
7255;SDS011;3669;49.200;9.242;2023-04-24T14:50:33;4.55;;;4.13;;
7255;SDS011;3669;49.200;9.242;2023-04-24T14:53:01;2.45;;;2.28;;
7255;SDS011;3669;49.200;9.242;2023-04-24T14:55:28;2.70;;;2.50;;
7255;SDS011;3669;49.200;9.242;2023-04-24T14:57:55;2.60;;;2.40;;
7255;SDS011;3669;49.200;9.242;2023-04-24T15:00:22;2.60;;;2.40;;
7255;SDS011;3669;49.200;9.242;2023-04-24T15:02:49;8.65;;;8.15;;
7255;SDS011;3669;49.200;9.242;2023-04-24T15:05:17;2.72;;;2.50;;
7255;SDS011;3669;49.200;9.242;2023-04-24T15:07:44;2.60;;;2.40;;
7255;SDS011;3669;49.200;9.242;2023-04-24T15:10:11;2.38;;;2.17;;
7255;SDS011;3669;49.200;9.242;2023-04-24T15:12:38;2.67;;;2.40;;
7255;SDS011;3669;49.200;9.242;2023-04-24T15:15:05;2.38;;;2.28;;
7255;SDS011;3669;49.200;9.242;2023-04-24T15:17:32;2.63;;;2.42;;
7255;SDS011;3669;49.200;9.242;2023-04-24T15:20:00;2.38;;;2.20;;
7255;SDS011;3669;49.200;9.242;2023-04-24T15:22:27;2.90;;;2.70;;
7255;SDS011;3669;49.200;9.242;2023-04-24T15:24:54;2.60;;;2.40;;
7255;SDS011;3669;49.200;9.242;2023-04-24T15:27:21;3.30;;;3.03;;
7255;SDS011;3669;49.200;9.242;2023-04-24T15:29:48;3.15;;;2.67;;